sensor_id;sensor_type;location;lat;lon;timestamp;P1;durP1;ratioP1;P2;durP2;ratioP2
16468;SDS011;8345;50.902;6.956;2022-07-26T00:01:37;3.20;;;1.40;;
16468;SDS011;8345;50.902;6.956;2022-07-26T00:04:06;1.27;;;1.10;;
16468;SDS011;8345;50.902;6.956;2022-07-26T00:06:33;1.53;;;1.10;;
16468;SDS011;8345;50.902;6.956;2022-07-26T00:09:00;2.63;;;1.50;;
16468;SDS011;8345;50.902;6.956;2022-07-26T00:11:28;3.40;;;1.13;;
16468;SDS011;8345;50.902;6.956;2022-07-26T00:13:57;2.53;;;1.17;;
16468;SDS011;8345;50.902;6.956;2022-07-26T00:16:25;1.40;;;0.80;;
16468;SDS011;8345;50.902;6.956;2022-07-26T00:18:52;2.20;;;1.23;;
16468;SDS011;8345;50.902;6.956;2022-07-26T00:21:20;1.73;;;1.10;;
16468;SDS011;8345;50.902;6.956;2022-07-26T00:23:48;2.07;;;1.10;;
16468;SDS011;8345;50.902;6.956;2022-07-26T00:26:15;2.90;;;1.23;;
16468;SDS011;8345;50.902;6.956;2022-07-26T00:28:43;2.70;;;1.10;;
16468;SDS011;8345;50.902;6.956;2022-07-26T00:31:10;3.23;;;1.20;;
16468;SDS011;8345;50.902;6.956;2022-07-26T00:33:37;4.13;;;1.23;;
16468;SDS011;8345;50.902;6.956;2022-07-26T00:36:05;2.20;;;1.20;;
16468;SDS011;8345;50.902;6.956;2022-07-26T00:38:34;3.43;;;1.63;;
16468;SDS011;8345;50.902;6.956;2022-07-26T00:41:02;2.83;;;1.30;;
16468;SDS011;8345;50.902;6.956;2022-07-26T00:43:29;2.47;;;1.30;;
16468;SDS011;8345;50.902;6.956;2022-07-26T00:45:57;4.10;;;1.30;;
16468;SDS011;8345;50.902;6.956;2022-07-26T00:48:24;3.00;;;1.20;;
16468;SDS011;8345;50.902;6.956;2022-07-26T00:50:52;5.00;;;1.50;;
16468;SDS011;8345;50.902;6.956;2022-07-26T00:53:20;3.40;;;1.50;;
16468;SDS011;8345;50.902;6.956;2022-07-26T00:55:49;3.87;;;1.67;;
16468;SDS011;8345;50.902;6.956;2022-07-26T00:58:16;4.43;;;1.70;;
16468;SDS011;8345;50.902;6.956;2022-07-26T01:00:44;4.70;;;1.77;;
16468;SDS011;8345;50.902;6.956;2022-07-26T01:03:11;3.13;;;1.57;;
16468;SDS011;8345;50.902;6.956;2022-07-26T01:05:38;3.47;;;1.50;;
16468;SDS011;8345;50.902;6.956;2022-07-26T01:08:05;2.23;;;1.50;;
16468;SDS011;8345;50.902;6.956;2022-07-26T01:10:33;3.47;;;1.90;;
16468;SDS011;8345;50.902;6.956;2022-07-26T01:13:02;5.87;;;1.80;;
16468;SDS011;8345;50.902;6.956;2022-07-26T01:15:29;3.77;;;1.70;;
16468;SDS011;8345;50.902;6.956;2022-07-26T01:17:56;5.03;;;1.60;;
16468;SDS011;8345;50.902;6.956;2022-07-26T01:20:23;3.67;;;1.80;;
16468;SDS011;8345;50.902;6.956;2022-07-26T01:22:52;4.23;;;1.60;;
16468;SDS011;8345;50.902;6.956;2022-07-26T01:25:26;3.30;;;1.80;;
16468;SDS011;8345;50.902;6.956;2022-07-26T01:27:54;3.90;;;1.50;;
16468;SDS011;8345;50.902;6.956;2022-07-26T01:30:21;2.83;;;1.50;;
16468;SDS011;8345;50.902;6.956;2022-07-26T01:32:48;5.73;;;1.80;;
16468;SDS011;8345;50.902;6.956;2022-07-26T01:35:15;3.43;;;1.70;;
16468;SDS011;8345;50.902;6.956;2022-07-26T01:37:43;3.93;;;1.80;;
16468;SDS011;8345;50.902;6.956;2022-07-26T01:40:11;3.23;;;1.73;;
16468;SDS011;8345;50.902;6.956;2022-07-26T01:42:39;4.20;;;1.67;;
16468;SDS011;8345;50.902;6.956;2022-07-26T01:45:07;2.27;;;1.80;;
16468;SDS011;8345;50.902;6.956;2022-07-26T01:47:34;5.30;;;2.30;;
16468;SDS011;8345;50.902;6.956;2022-07-26T01:50:02;4.27;;;1.73;;
16468;SDS011;8345;50.902;6.956;2022-07-26T01:52:29;4.40;;;2.00;;
16468;SDS011;8345;50.902;6.956;2022-07-26T01:54:57;6.30;;;1.93;;
16468;SDS011;8345;50.902;6.956;2022-07-26T01:57:25;5.23;;;2.00;;
16468;SDS011;8345;50.902;6.956;2022-07-26T01:59:53;5.40;;;1.80;;
16468;SDS011;8345;50.902;6.956;2022-07-26T02:02:20;3.47;;;1.47;;
16468;SDS011;8345;50.902;6.956;2022-07-26T02:04:47;3.37;;;2.03;;
16468;SDS011;8345;50.902;6.956;2022-07-26T02:07:23;2.63;;;1.70;;
16468;SDS011;8345;50.902;6.956;2022-07-26T02:09:51;5.03;;;1.90;;
16468;SDS011;8345;50.902;6.956;2022-07-26T02:12:18;4.53;;;1.93;;
16468;SDS011;8345;50.902;6.956;2022-07-26T02:14:47;2.70;;;1.77;;
16468;SDS011;8345;50.902;6.956;2022-07-26T02:17:15;4.70;;;1.70;;
16468;SDS011;8345;50.902;6.956;2022-07-26T02:19:42;5.57;;;1.77;;
16468;SDS011;8345;50.902;6.956;2022-07-26T02:22:09;3.03;;;1.60;;
16468;SDS011;8345;50.902;6.956;2022-07-26T02:24:36;3.10;;;1.83;;
16468;SDS011;8345;50.902;6.956;2022-07-26T02:27:04;2.73;;;1.67;;
16468;SDS011;8345;50.902;6.956;2022-07-26T02:29:31;2.40;;;1.67;;
16468;SDS011;8345;50.902;6.956;2022-07-26T02:32:00;3.43;;;1.40;;
16468;SDS011;8345;50.902;6.956;2022-07-26T02:34:27;3.60;;;1.60;;
16468;SDS011;8345;50.902;6.956;2022-07-26T02:36:54;2.17;;;1.60;;
16468;SDS011;8345;50.902;6.956;2022-07-26T02:39:21;3.77;;;1.93;;
16468;SDS011;8345;50.902;6.956;2022-07-26T02:41:52;4.50;;;1.77;;
16468;SDS011;8345;50.902;6.956;2022-07-26T02:44:20;3.03;;;1.60;;
16468;SDS011;8345;50.902;6.956;2022-07-26T02:46:47;2.53;;;1.60;;
16468;SDS011;8345;50.902;6.956;2022-07-26T02:49:16;4.17;;;1.60;;
16468;SDS011;8345;50.902;6.956;2022-07-26T02:51:43;3.57;;;1.60;;
16468;SDS011;8345;50.902;6.956;2022-07-26T02:54:10;2.77;;;1.30;;
16468;SDS011;8345;50.902;6.956;2022-07-26T02:56:37;3.53;;;1.80;;
16468;SDS011;8345;50.902;6.956;2022-07-26T02:59:05;4.77;;;1.90;;
16468;SDS011;8345;50.902;6.956;2022-07-26T03:01:32;4.03;;;1.67;;
16468;SDS011;8345;50.902;6.956;2022-07-26T03:04:00;5.10;;;2.10;;
16468;SDS011;8345;50.902;6.956;2022-07-26T03:06:29;4.03;;;1.93;;
16468;SDS011;8345;50.902;6.956;2022-07-26T03:08:56;4.33;;;2.37;;
16468;SDS011;8345;50.902;6.956;2022-07-26T03:11:23;3.73;;;1.73;;
16468;SDS011;8345;50.902;6.956;2022-07-26T03:13:50;4.70;;;1.90;;
16468;SDS011;8345;50.902;6.956;2022-07-26T03:16:17;3.70;;;1.90;;
16468;SDS011;8345;50.902;6.956;2022-07-26T03:18:45;4.20;;;2.00;;
16468;SDS011;8345;50.902;6.956;2022-07-26T03:21:12;8.73;;;2.03;;
16468;SDS011;8345;50.902;6.956;2022-07-26T03:23:40;3.00;;;1.90;;
16468;SDS011;8345;50.902;6.956;2022-07-26T03:26:07;3.27;;;1.80;;
16468;SDS011;8345;50.902;6.956;2022-07-26T03:28:35;3.77;;;1.90;;
16468;SDS011;8345;50.902;6.956;2022-07-26T03:31:03;3.83;;;1.87;;
16468;SDS011;8345;50.902;6.956;2022-07-26T03:33:30;5.93;;;2.00;;
16468;SDS011;8345;50.902;6.956;2022-07-26T03:35:58;5.30;;;2.23;;
16468;SDS011;8345;50.902;6.956;2022-07-26T03:38:25;5.73;;;2.30;;
16468;SDS011;8345;50.902;6.956;2022-07-26T03:40:53;5.30;;;2.20;;
16468;SDS011;8345;50.902;6.956;2022-07-26T03:43:20;4.20;;;2.43;;
16468;SDS011;8345;50.902;6.956;2022-07-26T03:45:48;4.37;;;2.07;;
16468;SDS011;8345;50.902;6.956;2022-07-26T03:48:15;4.33;;;1.90;;
16468;SDS011;8345;50.902;6.956;2022-07-26T03:50:42;3.93;;;2.43;;
16468;SDS011;8345;50.902;6.956;2022-07-26T03:53:09;4.03;;;2.20;;
16468;SDS011;8345;50.902;6.956;2022-07-26T03:55:36;5.23;;;2.53;;
16468;SDS011;8345;50.902;6.956;2022-07-26T03:58:23;4.70;;;2.30;;
16468;SDS011;8345;50.902;6.956;2022-07-26T04:00:50;6.10;;;2.27;;
16468;SDS011;8345;50.902;6.956;2022-07-26T04:03:17;3.90;;;2.30;;
16468;SDS011;8345;50.902;6.956;2022-07-26T04:05:44;4.40;;;2.60;;
16468;SDS011;8345;50.902;6.956;2022-07-26T04:08:11;3.67;;;2.27;;
16468;SDS011;8345;50.902;6.956;2022-07-26T04:10:43;3.90;;;2.20;;
16468;SDS011;8345;50.902;6.956;2022-07-26T04:13:10;5.23;;;2.20;;
16468;SDS011;8345;50.902;6.956;2022-07-26T04:15:39;4.60;;;2.27;;
16468;SDS011;8345;50.902;6.956;2022-07-26T04:18:06;4.10;;;2.50;;
16468;SDS011;8345;50.902;6.956;2022-07-26T04:20:33;3.27;;;2.53;;
16468;SDS011;8345;50.902;6.956;2022-07-26T04:23:00;5.53;;;2.10;;
16468;SDS011;8345;50.902;6.956;2022-07-26T04:25:28;9.17;;;2.43;;
16468;SDS011;8345;50.902;6.956;2022-07-26T04:27:55;7.40;;;2.83;;
16468;SDS011;8345;50.902;6.956;2022-07-26T04:30:22;3.83;;;2.10;;
16468;SDS011;8345;50.902;6.956;2022-07-26T04:32:51;3.80;;;2.20;;
16468;SDS011;8345;50.902;6.956;2022-07-26T04:35:18;6.47;;;2.87;;
16468;SDS011;8345;50.902;6.956;2022-07-26T04:37:45;6.10;;;2.40;;
16468;SDS011;8345;50.902;6.956;2022-07-26T04:40:15;5.10;;;2.70;;
16468;SDS011;8345;50.902;6.956;2022-07-26T04:42:42;5.90;;;2.90;;
16468;SDS011;8345;50.902;6.956;2022-07-26T04:45:10;4.87;;;2.30;;
16468;SDS011;8345;50.902;6.956;2022-07-26T04:47:39;4.47;;;2.50;;
16468;SDS011;8345;50.902;6.956;2022-07-26T04:50:08;4.50;;;2.40;;
16468;SDS011;8345;50.902;6.956;2022-07-26T04:52:36;5.70;;;2.30;;
16468;SDS011;8345;50.902;6.956;2022-07-26T04:55:03;6.93;;;2.60;;
16468;SDS011;8345;50.902;6.956;2022-07-26T04:57:30;5.27;;;2.70;;
16468;SDS011;8345;50.902;6.956;2022-07-26T04:59:58;3.67;;;2.23;;
16468;SDS011;8345;50.902;6.956;2022-07-26T05:02:25;5.43;;;2.67;;
16468;SDS011;8345;50.902;6.956;2022-07-26T05:04:52;6.63;;;2.80;;
16468;SDS011;8345;50.902;6.956;2022-07-26T05:07:21;4.53;;;2.47;;
16468;SDS011;8345;50.902;6.956;2022-07-26T05:09:48;6.63;;;2.90;;
16468;SDS011;8345;50.902;6.956;2022-07-26T05:12:15;8.40;;;2.87;;
16468;SDS011;8345;50.902;6.956;2022-07-26T05:14:42;6.70;;;2.70;;
16468;SDS011;8345;50.902;6.956;2022-07-26T05:17:10;5.53;;;2.90;;
16468;SDS011;8345;50.902;6.956;2022-07-26T05:19:37;4.27;;;3.03;;
16468;SDS011;8345;50.902;6.956;2022-07-26T05:22:04;6.13;;;2.83;;
16468;SDS011;8345;50.902;6.956;2022-07-26T05:24:33;8.37;;;3.40;;
16468;SDS011;8345;50.902;6.956;2022-07-26T05:27:00;5.80;;;3.20;;
16468;SDS011;8345;50.902;6.956;2022-07-26T05:29:27;7.30;;;3.60;;
16468;SDS011;8345;50.902;6.956;2022-07-26T05:31:54;6.93;;;3.50;;
16468;SDS011;8345;50.902;6.956;2022-07-26T05:34:21;6.73;;;3.30;;
16468;SDS011;8345;50.902;6.956;2022-07-26T05:36:49;8.97;;;3.60;;
16468;SDS011;8345;50.902;6.956;2022-07-26T05:39:16;6.17;;;3.37;;
16468;SDS011;8345;50.902;6.956;2022-07-26T05:41:44;8.00;;;3.30;;
16468;SDS011;8345;50.902;6.956;2022-07-26T05:44:12;5.53;;;3.03;;
16468;SDS011;8345;50.902;6.956;2022-07-26T05:46:39;6.93;;;3.10;;
16468;SDS011;8345;50.902;6.956;2022-07-26T05:49:06;6.47;;;4.00;;
16468;SDS011;8345;50.902;6.956;2022-07-26T05:51:33;8.47;;;4.53;;
16468;SDS011;8345;50.902;6.956;2022-07-26T05:54:01;5.60;;;3.33;;
16468;SDS011;8345;50.902;6.956;2022-07-26T05:56:28;7.60;;;3.77;;
16468;SDS011;8345;50.902;6.956;2022-07-26T05:58:56;8.53;;;3.70;;
16468;SDS011;8345;50.902;6.956;2022-07-26T06:01:24;7.88;;;4.00;;
16468;SDS011;8345;50.902;6.956;2022-07-26T06:03:53;10.00;;;4.20;;
16468;SDS011;8345;50.902;6.956;2022-07-26T06:06:20;9.40;;;3.47;;
16468;SDS011;8345;50.902;6.956;2022-07-26T06:08:47;8.83;;;4.00;;
16468;SDS011;8345;50.902;6.956;2022-07-26T06:11:15;8.80;;;3.97;;
16468;SDS011;8345;50.902;6.956;2022-07-26T06:13:42;8.00;;;4.17;;
16468;SDS011;8345;50.902;6.956;2022-07-26T06:16:11;7.73;;;4.27;;
16468;SDS011;8345;50.902;6.956;2022-07-26T06:18:38;8.33;;;4.30;;
16468;SDS011;8345;50.902;6.956;2022-07-26T06:21:05;7.50;;;3.80;;
16468;SDS011;8345;50.902;6.956;2022-07-26T06:23:33;10.27;;;3.87;;
16468;SDS011;8345;50.902;6.956;2022-07-26T06:26:01;9.67;;;4.57;;
16468;SDS011;8345;50.902;6.956;2022-07-26T06:28:28;9.13;;;4.43;;
16468;SDS011;8345;50.902;6.956;2022-07-26T06:30:55;7.60;;;3.83;;
16468;SDS011;8345;50.902;6.956;2022-07-26T06:33:24;9.23;;;4.23;;
16468;SDS011;8345;50.902;6.956;2022-07-26T06:35:51;9.57;;;3.97;;
16468;SDS011;8345;50.902;6.956;2022-07-26T06:38:18;5.97;;;3.73;;
16468;SDS011;8345;50.902;6.956;2022-07-26T06:40:46;12.13;;;5.00;;
16468;SDS011;8345;50.902;6.956;2022-07-26T06:43:13;11.00;;;4.60;;
16468;SDS011;8345;50.902;6.956;2022-07-26T06:45:40;8.47;;;4.77;;
16468;SDS011;8345;50.902;6.956;2022-07-26T06:48:07;7.13;;;4.83;;
16468;SDS011;8345;50.902;6.956;2022-07-26T06:50:36;9.07;;;4.67;;
16468;SDS011;8345;50.902;6.956;2022-07-26T06:53:03;11.43;;;5.63;;
16468;SDS011;8345;50.902;6.956;2022-07-26T06:55:30;10.40;;;5.00;;
16468;SDS011;8345;50.902;6.956;2022-07-26T06:57:57;7.57;;;4.80;;
16468;SDS011;8345;50.902;6.956;2022-07-26T07:00:25;13.00;;;5.23;;
16468;SDS011;8345;50.902;6.956;2022-07-26T07:02:52;9.67;;;4.97;;
16468;SDS011;8345;50.902;6.956;2022-07-26T07:05:19;12.07;;;5.53;;
16468;SDS011;8345;50.902;6.956;2022-07-26T07:07:48;11.00;;;5.13;;
16468;SDS011;8345;50.902;6.956;2022-07-26T07:10:15;13.90;;;6.20;;
16468;SDS011;8345;50.902;6.956;2022-07-26T07:12:42;9.60;;;5.53;;
16468;SDS011;8345;50.902;6.956;2022-07-26T07:15:09;10.40;;;5.37;;
16468;SDS011;8345;50.902;6.956;2022-07-26T07:17:37;9.07;;;5.40;;
16468;SDS011;8345;50.902;6.956;2022-07-26T07:20:04;9.27;;;4.93;;
16468;SDS011;8345;50.902;6.956;2022-07-26T07:22:32;11.50;;;5.87;;
16468;SDS011;8345;50.902;6.956;2022-07-26T07:25:00;9.40;;;5.00;;
16468;SDS011;8345;50.902;6.956;2022-07-26T07:27:27;9.70;;;5.23;;
16468;SDS011;8345;50.902;6.956;2022-07-26T07:29:55;8.10;;;5.70;;
16468;SDS011;8345;50.902;6.956;2022-07-26T07:32:22;10.93;;;5.73;;
16468;SDS011;8345;50.902;6.956;2022-07-26T07:34:49;11.73;;;5.83;;
16468;SDS011;8345;50.902;6.956;2022-07-26T07:37:16;9.03;;;5.47;;
16468;SDS011;8345;50.902;6.956;2022-07-26T07:39:44;10.67;;;6.03;;
16468;SDS011;8345;50.902;6.956;2022-07-26T07:42:12;11.33;;;6.23;;
16468;SDS011;8345;50.902;6.956;2022-07-26T07:44:40;9.13;;;6.40;;
16468;SDS011;8345;50.902;6.956;2022-07-26T07:47:07;10.10;;;7.23;;
16468;SDS011;8345;50.902;6.956;2022-07-26T07:49:34;9.27;;;6.73;;
16468;SDS011;8345;50.902;6.956;2022-07-26T07:52:02;11.03;;;6.87;;
16468;SDS011;8345;50.902;6.956;2022-07-26T07:54:29;11.87;;;6.67;;
16468;SDS011;8345;50.902;6.956;2022-07-26T07:56:56;10.40;;;6.37;;
16468;SDS011;8345;50.902;6.956;2022-07-26T07:59:25;10.87;;;7.23;;
16468;SDS011;8345;50.902;6.956;2022-07-26T08:01:53;12.47;;;7.83;;
16468;SDS011;8345;50.902;6.956;2022-07-26T08:04:20;12.73;;;8.03;;
16468;SDS011;8345;50.902;6.956;2022-07-26T08:06:47;10.70;;;8.40;;
16468;SDS011;8345;50.902;6.956;2022-07-26T08:09:15;14.07;;;9.33;;
16468;SDS011;8345;50.902;6.956;2022-07-26T08:11:42;10.20;;;9.17;;
16468;SDS011;8345;50.902;6.956;2022-07-26T08:14:09;11.60;;;8.23;;
16468;SDS011;8345;50.902;6.956;2022-07-26T08:16:38;13.80;;;8.73;;
16468;SDS011;8345;50.902;6.956;2022-07-26T08:19:06;10.83;;;8.37;;
16468;SDS011;8345;50.902;6.956;2022-07-26T08:21:33;12.67;;;8.63;;
16468;SDS011;8345;50.902;6.956;2022-07-26T08:24:00;11.40;;;8.73;;
16468;SDS011;8345;50.902;6.956;2022-07-26T08:26:27;16.30;;;8.97;;
16468;SDS011;8345;50.902;6.956;2022-07-26T08:28:55;12.70;;;8.57;;
16468;SDS011;8345;50.902;6.956;2022-07-26T08:31:22;12.43;;;8.30;;
16468;SDS011;8345;50.902;6.956;2022-07-26T08:33:50;10.77;;;8.97;;
16468;SDS011;8345;50.902;6.956;2022-07-26T08:36:18;13.90;;;9.70;;
16468;SDS011;8345;50.902;6.956;2022-07-26T08:38:45;14.77;;;9.80;;
16468;SDS011;8345;50.902;6.956;2022-07-26T08:41:12;11.37;;;8.70;;
16468;SDS011;8345;50.902;6.956;2022-07-26T08:43:39;12.60;;;9.37;;
16468;SDS011;8345;50.902;6.956;2022-07-26T08:46:07;14.87;;;10.40;;
16468;SDS011;8345;50.902;6.956;2022-07-26T08:48:34;11.87;;;10.13;;
16468;SDS011;8345;50.902;6.956;2022-07-26T08:51:05;11.60;;;9.60;;
16468;SDS011;8345;50.902;6.956;2022-07-26T08:53:34;11.03;;;9.93;;
16468;SDS011;8345;50.902;6.956;2022-07-26T08:56:02;11.83;;;9.83;;
16468;SDS011;8345;50.902;6.956;2022-07-26T08:58:30;10.73;;;9.33;;
16468;SDS011;8345;50.902;6.956;2022-07-26T09:01:04;12.10;;;9.90;;
16468;SDS011;8345;50.902;6.956;2022-07-26T09:03:31;12.53;;;9.80;;
16468;SDS011;8345;50.902;6.956;2022-07-26T09:08:45;15.20;;;10.17;;
16468;SDS011;8345;50.902;6.956;2022-07-26T09:11:24;11.10;;;10.10;;
16468;SDS011;8345;50.902;6.956;2022-07-26T09:13:53;10.63;;;9.53;;
16468;SDS011;8345;50.902;6.956;2022-07-26T09:16:21;12.30;;;10.50;;
16468;SDS011;8345;50.902;6.956;2022-07-26T09:18:48;12.03;;;10.07;;
16468;SDS011;8345;50.902;6.956;2022-07-26T09:21:25;13.17;;;9.60;;
16468;SDS011;8345;50.902;6.956;2022-07-26T09:23:54;10.80;;;8.50;;
16468;SDS011;8345;50.902;6.956;2022-07-26T09:26:21;11.90;;;9.67;;
16468;SDS011;8345;50.902;6.956;2022-07-26T09:29:00;10.20;;;9.03;;
16468;SDS011;8345;50.902;6.956;2022-07-26T09:31:28;9.87;;;8.87;;
16468;SDS011;8345;50.902;6.956;2022-07-26T09:33:55;9.30;;;8.17;;
16468;SDS011;8345;50.902;6.956;2022-07-26T09:36:24;11.00;;;8.40;;
16468;SDS011;8345;50.902;6.956;2022-07-26T09:38:54;9.30;;;8.30;;
16468;SDS011;8345;50.902;6.956;2022-07-26T09:41:23;9.73;;;8.83;;
16468;SDS011;8345;50.902;6.956;2022-07-26T09:43:51;10.03;;;7.83;;
16468;SDS011;8345;50.902;6.956;2022-07-26T09:46:19;9.90;;;7.87;;
16468;SDS011;8345;50.902;6.956;2022-07-26T09:48:47;9.20;;;7.67;;
16468;SDS011;8345;50.902;6.956;2022-07-26T09:51:14;9.33;;;8.23;;
16468;SDS011;8345;50.902;6.956;2022-07-26T09:53:43;11.60;;;8.43;;
16468;SDS011;8345;50.902;6.956;2022-07-26T09:56:13;12.07;;;9.00;;
16468;SDS011;8345;50.902;6.956;2022-07-26T09:58:40;9.23;;;8.23;;
16468;SDS011;8345;50.902;6.956;2022-07-26T10:01:07;9.73;;;8.17;;
16468;SDS011;8345;50.902;6.956;2022-07-26T10:03:34;11.37;;;8.03;;
16468;SDS011;8345;50.902;6.956;2022-07-26T10:06:02;8.53;;;6.60;;
16468;SDS011;8345;50.902;6.956;2022-07-26T10:08:30;7.60;;;6.60;;
16468;SDS011;8345;50.902;6.956;2022-07-26T10:10:59;7.07;;;6.37;;
16468;SDS011;8345;50.902;6.956;2022-07-26T10:13:29;7.77;;;6.97;;
16468;SDS011;8345;50.902;6.956;2022-07-26T10:15:56;8.80;;;6.50;;
16468;SDS011;8345;50.902;6.956;2022-07-26T10:18:42;8.10;;;6.15;;
16468;SDS011;8345;50.902;6.956;2022-07-26T10:21:19;7.47;;;6.18;;
16468;SDS011;8345;50.902;6.956;2022-07-26T10:23:47;7.30;;;6.40;;
16468;SDS011;8345;50.902;6.956;2022-07-26T10:26:34;5.27;;;4.87;;
16468;SDS011;8345;50.902;6.956;2022-07-26T10:29:22;8.37;;;5.67;;
16468;SDS011;8345;50.902;6.956;2022-07-26T10:34:33;6.90;;;5.53;;
16468;SDS011;8345;50.902;6.956;2022-07-26T10:37:01;7.27;;;5.60;;
16468;SDS011;8345;50.902;6.956;2022-07-26T10:39:29;7.88;;;5.75;;
16468;SDS011;8345;50.902;6.956;2022-07-26T10:41:58;7.25;;;5.53;;
16468;SDS011;8345;50.902;6.956;2022-07-26T10:44:27;7.90;;;5.10;;
16468;SDS011;8345;50.902;6.956;2022-07-26T10:46:56;5.63;;;4.85;;
16468;SDS011;8345;50.902;6.956;2022-07-26T10:49:31;6.10;;;4.75;;
16468;SDS011;8345;50.902;6.956;2022-07-26T10:52:10;7.88;;;6.28;;
16468;SDS011;8345;50.902;6.956;2022-07-26T10:57:24;6.95;;;6.25;;
16468;SDS011;8345;50.902;6.956;2022-07-26T10:59:53;6.75;;;5.72;;
16468;SDS011;8345;50.902;6.956;2022-07-26T11:02:22;8.23;;;6.25;;
16468;SDS011;8345;50.902;6.956;2022-07-26T11:04:57;6.55;;;5.32;;
16468;SDS011;8345;50.902;6.956;2022-07-26T11:07:24;6.88;;;4.93;;
16468;SDS011;8345;50.902;6.956;2022-07-26T11:09:53;8.77;;;5.30;;
16468;SDS011;8345;50.902;6.956;2022-07-26T11:12:20;6.30;;;5.68;;
16468;SDS011;8345;50.902;6.956;2022-07-26T11:14:48;6.68;;;5.03;;
16468;SDS011;8345;50.902;6.956;2022-07-26T11:17:26;6.97;;;5.22;;
16468;SDS011;8345;50.902;6.956;2022-07-26T11:19:54;6.28;;;4.47;;
16468;SDS011;8345;50.902;6.956;2022-07-26T11:22:21;7.47;;;5.32;;
16468;SDS011;8345;50.902;6.956;2022-07-26T11:24:48;9.23;;;4.88;;
16468;SDS011;8345;50.902;6.956;2022-07-26T11:27:16;6.32;;;4.72;;
16468;SDS011;8345;50.902;6.956;2022-07-26T11:29:44;6.32;;;4.25;;
16468;SDS011;8345;50.902;6.956;2022-07-26T11:32:14;6.28;;;4.18;;
16468;SDS011;8345;50.902;6.956;2022-07-26T11:34:43;6.63;;;4.00;;
16468;SDS011;8345;50.902;6.956;2022-07-26T11:37:11;5.95;;;3.70;;
16468;SDS011;8345;50.902;6.956;2022-07-26T11:39:38;6.55;;;4.15;;
16468;SDS011;8345;50.902;6.956;2022-07-26T11:42:06;6.53;;;4.50;;
16468;SDS011;8345;50.902;6.956;2022-07-26T11:44:34;6.70;;;4.50;;
16468;SDS011;8345;50.902;6.956;2022-07-26T11:47:09;6.63;;;4.90;;
16468;SDS011;8345;50.902;6.956;2022-07-26T11:49:37;6.47;;;4.47;;
16468;SDS011;8345;50.902;6.956;2022-07-26T11:52:05;9.03;;;5.57;;
16468;SDS011;8345;50.902;6.956;2022-07-26T11:54:42;5.30;;;4.80;;
16468;SDS011;8345;50.902;6.956;2022-07-26T11:57:09;5.90;;;4.70;;
16468;SDS011;8345;50.902;6.956;2022-07-26T11:59:38;4.57;;;4.17;;
16468;SDS011;8345;50.902;6.956;2022-07-26T12:02:05;6.67;;;4.93;;
16468;SDS011;8345;50.902;6.956;2022-07-26T12:04:33;6.83;;;5.53;;
16468;SDS011;8345;50.902;6.956;2022-07-26T12:07:06;5.30;;;4.90;;
16468;SDS011;8345;50.902;6.956;2022-07-26T12:09:36;7.07;;;6.07;;
16468;SDS011;8345;50.902;6.956;2022-07-26T12:12:05;7.33;;;5.77;;
16468;SDS011;8345;50.902;6.956;2022-07-26T12:14:34;5.70;;;5.20;;
16468;SDS011;8345;50.902;6.956;2022-07-26T12:17:11;4.77;;;4.40;;
16468;SDS011;8345;50.902;6.956;2022-07-26T12:19:39;5.33;;;4.30;;
16468;SDS011;8345;50.902;6.956;2022-07-26T12:22:07;5.17;;;4.50;;
16468;SDS011;8345;50.902;6.956;2022-07-26T12:24:39;5.47;;;4.10;;
16468;SDS011;8345;50.902;6.956;2022-07-26T12:27:08;4.30;;;3.93;;
16468;SDS011;8345;50.902;6.956;2022-07-26T12:29:36;4.60;;;4.20;;
16468;SDS011;8345;50.902;6.956;2022-07-26T12:32:04;4.37;;;4.07;;
16468;SDS011;8345;50.902;6.956;2022-07-26T12:34:32;4.67;;;4.27;;
16468;SDS011;8345;50.902;6.956;2022-07-26T12:37:06;4.37;;;3.97;;
16468;SDS011;8345;50.902;6.956;2022-07-26T12:39:34;5.03;;;4.17;;
16468;SDS011;8345;50.902;6.956;2022-07-26T12:44:45;5.00;;;4.20;;
16468;SDS011;8345;50.902;6.956;2022-07-26T12:47:12;3.73;;;3.43;;
16468;SDS011;8345;50.902;6.956;2022-07-26T12:49:39;4.00;;;3.70;;
16468;SDS011;8345;50.902;6.956;2022-07-26T12:52:10;4.07;;;3.77;;
16468;SDS011;8345;50.902;6.956;2022-07-26T12:54:37;3.60;;;3.30;;
16468;SDS011;8345;50.902;6.956;2022-07-26T12:57:05;6.57;;;3.57;;
16468;SDS011;8345;50.902;6.956;2022-07-26T12:59:32;5.60;;;3.40;;
16468;SDS011;8345;50.902;6.956;2022-07-26T13:02:01;4.83;;;3.83;;
16468;SDS011;8345;50.902;6.956;2022-07-26T13:04:28;3.47;;;3.27;;
16468;SDS011;8345;50.902;6.956;2022-07-26T13:06:55;5.33;;;3.67;;
16468;SDS011;8345;50.902;6.956;2022-07-26T13:09:23;3.83;;;3.53;;
16468;SDS011;8345;50.902;6.956;2022-07-26T13:11:50;4.20;;;3.80;;
16468;SDS011;8345;50.902;6.956;2022-07-26T13:14:17;4.80;;;4.30;;
16468;SDS011;8345;50.902;6.956;2022-07-26T13:16:44;4.57;;;4.17;;
16468;SDS011;8345;50.902;6.956;2022-07-26T13:19:13;5.83;;;4.40;;
16468;SDS011;8345;50.902;6.956;2022-07-26T13:21:40;4.93;;;4.50;;
16468;SDS011;8345;50.902;6.956;2022-07-26T13:24:07;5.70;;;4.70;;
16468;SDS011;8345;50.902;6.956;2022-07-26T13:26:35;4.82;;;4.43;;
16468;SDS011;8345;50.902;6.956;2022-07-26T13:29:02;4.70;;;4.30;;
16468;SDS011;8345;50.902;6.956;2022-07-26T13:31:30;8.50;;;4.45;;
16468;SDS011;8345;50.902;6.956;2022-07-26T13:33:57;5.13;;;4.40;;
16468;SDS011;8345;50.902;6.956;2022-07-26T13:36:26;5.87;;;4.30;;
16468;SDS011;8345;50.902;6.956;2022-07-26T13:38:53;4.55;;;3.83;;
16468;SDS011;8345;50.902;6.956;2022-07-26T13:41:21;4.57;;;4.18;;
16468;SDS011;8345;50.902;6.956;2022-07-26T13:43:48;5.18;;;3.42;;
16468;SDS011;8345;50.902;6.956;2022-07-26T13:46:17;4.43;;;4.03;;
16468;SDS011;8345;50.902;6.956;2022-07-26T13:48:44;3.60;;;2.90;;
16468;SDS011;8345;50.902;6.956;2022-07-26T13:51:11;3.57;;;3.00;;
16468;SDS011;8345;50.902;6.956;2022-07-26T13:53:40;3.00;;;2.80;;
16468;SDS011;8345;50.902;6.956;2022-07-26T13:56:08;3.70;;;2.77;;
16468;SDS011;8345;50.902;6.956;2022-07-26T13:58:36;3.75;;;2.50;;
16468;SDS011;8345;50.902;6.956;2022-07-26T14:01:03;5.97;;;2.50;;
16468;SDS011;8345;50.902;6.956;2022-07-26T14:03:30;3.78;;;2.75;;
16468;SDS011;8345;50.902;6.956;2022-07-26T14:05:58;4.13;;;2.85;;
16468;SDS011;8345;50.902;6.956;2022-07-26T14:08:25;3.30;;;3.00;;
16468;SDS011;8345;50.902;6.956;2022-07-26T14:10:54;6.00;;;3.17;;
16468;SDS011;8345;50.902;6.956;2022-07-26T14:13:21;4.00;;;3.05;;
16468;SDS011;8345;50.902;6.956;2022-07-26T14:15:48;3.60;;;3.10;;
16468;SDS011;8345;50.902;6.956;2022-07-26T14:18:15;6.30;;;3.20;;
16468;SDS011;8345;50.902;6.956;2022-07-26T14:20:43;6.03;;;3.60;;
16468;SDS011;8345;50.902;6.956;2022-07-26T14:23:10;3.00;;;2.75;;
16468;SDS011;8345;50.902;6.956;2022-07-26T14:25:37;5.53;;;3.00;;
16468;SDS011;8345;50.902;6.956;2022-07-26T14:28:06;3.70;;;3.40;;
16468;SDS011;8345;50.902;6.956;2022-07-26T14:30:33;6.07;;;2.97;;
16468;SDS011;8345;50.902;6.956;2022-07-26T14:33:00;5.45;;;3.72;;
16468;SDS011;8345;50.902;6.956;2022-07-26T14:35:29;4.00;;;3.63;;
16468;SDS011;8345;50.902;6.956;2022-07-26T14:37:56;4.88;;;3.63;;
16468;SDS011;8345;50.902;6.956;2022-07-26T14:40:23;3.17;;;2.87;;
16468;SDS011;8345;50.902;6.956;2022-07-26T14:42:50;4.53;;;3.28;;
16468;SDS011;8345;50.902;6.956;2022-07-26T14:45:19;3.65;;;2.95;;
16468;SDS011;8345;50.902;6.956;2022-07-26T14:47:46;2.53;;;2.33;;
16468;SDS011;8345;50.902;6.956;2022-07-26T14:50:14;2.10;;;1.90;;
16468;SDS011;8345;50.902;6.956;2022-07-26T14:52:42;2.63;;;2.07;;
16468;SDS011;8345;50.902;6.956;2022-07-26T14:55:09;1.93;;;1.73;;
16468;SDS011;8345;50.902;6.956;2022-07-26T14:57:37;3.43;;;1.90;;
16468;SDS011;8345;50.902;6.956;2022-07-26T15:00:05;3.40;;;2.17;;
16468;SDS011;8345;50.902;6.956;2022-07-26T15:02:36;1.80;;;1.70;;
16468;SDS011;8345;50.902;6.956;2022-07-26T15:05:03;1.67;;;1.57;;
16468;SDS011;8345;50.902;6.956;2022-07-26T15:07:31;2.50;;;1.80;;
16468;SDS011;8345;50.902;6.956;2022-07-26T15:09:58;2.20;;;1.40;;
16468;SDS011;8345;50.902;6.956;2022-07-26T15:12:25;1.67;;;1.47;;
16468;SDS011;8345;50.902;6.956;2022-07-26T15:14:52;2.50;;;1.47;;